createdAt,value
2019-04-01T00:00:53.945Z,6.49
2019-04-01T00:01:53.941Z,6.60
2019-04-01T00:02:53.887Z,6.55
2019-04-01T00:03:53.897Z,6.42
2019-04-01T00:04:53.867Z,6.53
2019-04-01T00:05:53.863Z,6.55
2019-04-01T00:06:53.882Z,6.49
2019-04-01T00:07:53.836Z,6.44
2019-04-01T00:08:53.844Z,6.53
2019-04-01T00:09:53.826Z,6.42
2019-04-01T00:10:53.801Z,6.45
2019-04-01T00:11:53.811Z,6.48
2019-04-01T00:12:53.786Z,6.47
2019-04-01T00:13:53.778Z,6.49
2019-04-01T00:14:53.773Z,6.55
2019-04-01T00:15:53.743Z,6.52
2019-04-01T00:16:53.783Z,6.52
2019-04-01T00:17:53.727Z,6.47
2019-04-01T00:19:02.831Z,6.56
2019-04-01T00:19:54.703Z,6.49
2019-04-01T00:20:53.695Z,6.53
2019-04-01T00:21:53.701Z,6.59
2019-04-01T00:22:53.781Z,6.60
2019-04-01T00:23:53.666Z,6.49
2019-04-01T00:24:53.667Z,6.49
2019-04-01T00:25:53.636Z,6.47
2019-04-01T00:26:53.660Z,6.47
2019-04-01T00:27:53.635Z,6.41
2019-04-01T00:28:53.618Z,6.47
2019-04-01T00:29:53.594Z,6.52
2019-04-01T00:30:53.582Z,6.42
2019-04-01T00:31:53.586Z,6.44
2019-04-01T00:32:53.567Z,6.48
2019-04-01T00:33:53.560Z,6.44
2019-04-01T00:34:53.543Z,6.49
2019-04-01T00:35:53.531Z,6.45
2019-04-01T00:36:53.548Z,6.49
2019-04-01T00:37:53.504Z,6.44
2019-04-01T00:38:53.495Z,6.27
2019-04-01T00:39:53.664Z,6.42
2019-04-01T00:40:53.497Z,6.44
2019-04-01T00:41:53.462Z,6.42
2019-04-01T00:42:53.480Z,6.45
2019-04-01T00:43:53.443Z,6.30
2019-04-01T00:44:53.445Z,6.30
2019-04-01T00:45:53.513Z,6.37
2019-04-01T00:46:53.411Z,6.38
2019-04-01T00:47:53.419Z,6.37
2019-04-01T00:48:53.416Z,6.29
2019-04-01T00:49:53.389Z,6.30
2019-04-01T00:50:53.370Z,6.30
2019-04-01T00:51:53.373Z,6.37
2019-04-01T00:52:53.419Z,6.26
2019-04-01T00:53:53.332Z,6.27
2019-04-01T00:54:53.324Z,6.32
2019-04-01T00:55:53.309Z,6.27
2019-04-01T00:56:53.306Z,6.29
2019-04-01T00:57:53.315Z,6.27
2019-04-01T00:58:53.274Z,6.34
2019-04-01T00:59:53.285Z,6.26
2019-04-01T01:00:53.258Z,6.27
2019-04-01T01:01:53.251Z,6.30
2019-04-01T01:02:53.239Z,6.19
2019-04-01T01:03:53.248Z,6.24
2019-04-01T01:04:53.214Z,6.19
2019-04-01T01:05:53.245Z,6.32
2019-04-01T01:06:53.211Z,6.22
2019-04-01T01:07:53.181Z,6.24
2019-04-01T01:08:53.186Z,6.21
2019-04-01T01:09:53.172Z,6.22
2019-04-01T01:10:53.146Z,6.26
2019-04-01T01:11:53.152Z,6.26
2019-04-01T01:12:53.114Z,6.24
2019-04-01T01:13:53.128Z,6.19
2019-04-01T01:14:53.120Z,6.15
2019-04-01T01:15:53.094Z,6.30
2019-04-01T01:16:53.080Z,6.15
2019-04-01T01:17:53.082Z,6.21
2019-04-01T01:18:53.115Z,6.22
2019-04-01T01:19:53.054Z,6.11
2019-04-01T01:20:53.027Z,6.10
2019-04-01T01:21:53.018Z,6.01
2019-04-01T01:22:53.006Z,6.07
2019-04-01T01:23:53.026Z,6.05
2019-04-01T01:24:52.988Z,6.16
2019-04-01T01:25:52.972Z,6.10
2019-04-01T01:26:52.970Z,6.05
2019-04-01T01:27:52.986Z,6.07
2019-04-01T01:28:52.982Z,6.01
2019-04-01T01:29:52.928Z,6.04
2019-04-01T01:30:52.929Z,6.05
2019-04-01T01:31:52.908Z,6.03
2019-04-01T01:32:52.899Z,6.01
2019-04-01T01:33:52.915Z,6.08
2019-04-01T01:34:52.901Z,6.04
2019-04-01T01:35:52.868Z,6.07
2019-04-01T01:36:52.866Z,6.05
2019-04-01T01:37:52.840Z,6.04
2019-04-01T01:38:52.834Z,6.07
2019-04-01T01:39:53.104Z,6.07
2019-04-01T01:40:52.807Z,5.94
2019-04-01T01:41:52.799Z,6.05
2019-04-01T01:42:52.809Z,5.97
2019-04-01T01:43:52.774Z,5.86
2019-04-01T01:44:52.782Z,5.98
2019-04-01T01:45:52.782Z,5.83
2019-04-01T01:46:52.740Z,5.85
2019-04-01T01:47:52.737Z,5.85
2019-04-01T01:48:52.718Z,5.82
2019-04-01T01:49:52.733Z,5.71
2019-04-01T01:50:52.698Z,5.71
2019-04-01T01:51:52.715Z,5.74
2019-04-01T01:52:52.672Z,5.74
2019-04-01T01:53:52.688Z,5.76
2019-04-01T01:54:52.696Z,5.72
2019-04-01T01:55:52.647Z,5.72
2019-04-01T01:56:52.632Z,5.74
2019-04-01T01:57:52.642Z,5.76
2019-04-01T01:58:52.615Z,5.68
2019-04-01T01:59:52.623Z,5.72
2019-04-01T02:00:52.584Z,5.71
2019-04-01T02:01:52.586Z,5.76
2019-04-01T02:02:52.561Z,5.76
2019-04-01T02:03:52.572Z,5.74
2019-04-01T02:04:52.558Z,5.80
2019-04-01T02:05:52.530Z,5.82
2019-04-01T02:06:52.521Z,5.82
2019-04-01T02:07:52.543Z,5.82
2019-04-01T02:08:52.501Z,5.85
2019-04-01T02:09:52.699Z,5.76
2019-04-01T02:10:52.532Z,5.76
2019-04-01T02:11:52.471Z,5.79
2019-04-01T02:12:52.487Z,5.80
2019-04-01T02:13:52.447Z,5.80
2019-04-01T02:14:52.479Z,5.89
2019-04-01T02:15:52.431Z,5.89
2019-04-01T02:16:52.454Z,5.94
2019-04-01T02:17:52.408Z,5.80
2019-04-01T02:18:52.383Z,5.90
2019-04-01T02:19:52.391Z,5.94
2019-04-01T02:20:52.379Z,5.95
2019-04-01T02:21:52.394Z,5.95
2019-04-01T02:22:52.343Z,6.01
2019-04-01T02:23:52.323Z,5.85
2019-04-01T02:24:52.348Z,5.89
2019-04-01T02:25:52.325Z,5.95
2019-04-01T02:26:52.300Z,5.80
2019-04-01T02:27:52.301Z,5.89
2019-04-01T02:28:52.275Z,5.92
2019-04-01T02:29:52.291Z,5.90
2019-04-01T02:30:52.256Z,5.95
2019-04-01T02:31:52.258Z,5.98
2019-04-01T02:32:52.227Z,6.01
2019-04-01T02:33:52.253Z,6.01
2019-04-01T02:34:52.223Z,6.00
2019-04-01T02:35:52.188Z,5.97
2019-04-01T02:36:52.185Z,5.98
2019-04-01T02:37:52.174Z,6.01
2019-04-01T02:38:52.169Z,5.94
2019-04-01T02:39:52.201Z,5.95
2019-04-01T02:40:52.136Z,5.94
2019-04-01T02:41:52.123Z,6.01
2019-04-01T02:42:52.117Z,6.03
2019-04-01T02:43:52.119Z,5.98
2019-04-01T02:44:52.096Z,5.98
2019-04-01T02:45:52.124Z,5.94
2019-04-01T02:46:52.077Z,5.94
2019-04-01T02:47:52.068Z,5.98
2019-04-01T02:48:52.053Z,5.94
2019-04-01T02:49:52.045Z,6.00
2019-04-01T02:50:52.053Z,5.97
2019-04-01T02:51:52.018Z,5.95
2019-04-01T02:52:52.009Z,5.94
2019-04-01T02:53:52.007Z,5.94
2019-04-01T02:54:52.084Z,5.94
2019-04-01T02:55:51.991Z,6.00
2019-04-01T02:56:51.960Z,5.85
2019-04-01T02:57:51.955Z,5.89
2019-04-01T02:58:51.934Z,5.82
2019-04-01T02:59:51.937Z,5.80
2019-04-01T03:00:51.947Z,5.76
2019-04-01T03:01:51.949Z,5.72
2019-04-01T03:02:51.893Z,5.83
2019-04-01T03:03:51.885Z,5.79
2019-04-01T03:04:51.879Z,5.85
2019-04-01T03:05:51.882Z,5.76
2019-04-01T03:06:51.857Z,5.77
2019-04-01T03:07:51.839Z,5.74
2019-04-01T03:08:51.829Z,5.72
2019-04-01T03:09:51.830Z,5.71
2019-04-01T03:10:51.838Z,5.83
2019-04-01T03:11:51.792Z,5.74
2019-04-01T03:12:51.803Z,5.77
2019-04-01T03:13:51.767Z,5.74
2019-04-01T03:14:51.776Z,5.76
2019-04-01T03:15:51.773Z,5.74
2019-04-01T03:16:51.742Z,5.74
2019-04-01T03:17:51.740Z,5.79
2019-04-01T03:18:51.755Z,5.77
2019-04-01T03:19:51.699Z,5.69
2019-04-01T03:20:51.709Z,5.74
2019-04-01T03:21:51.713Z,5.74
2019-04-01T03:22:51.673Z,5.65
2019-04-01T03:23:51.684Z,5.76
2019-04-01T03:24:51.648Z,5.68
2019-04-01T03:25:51.681Z,5.68
2019-04-01T03:26:51.638Z,5.68
2019-04-01T03:27:51.625Z,5.69
2019-04-01T03:28:51.612Z,5.64
2019-04-01T03:29:51.598Z,5.65
2019-04-01T03:30:51.598Z,5.69
2019-04-01T03:31:51.593Z,5.71
2019-04-01T03:32:51.563Z,5.65
2019-04-01T03:33:51.555Z,5.65
2019-04-01T03:34:51.539Z,5.67
2019-04-01T03:35:51.516Z,5.74
2019-04-01T03:36:51.558Z,5.72
2019-04-01T03:37:51.507Z,5.68
2019-04-01T03:38:51.495Z,5.69
2019-04-01T03:39:51.486Z,5.69
2019-04-01T03:40:51.490Z,5.67
2019-04-01T03:41:51.497Z,5.72
2019-04-01T03:42:51.450Z,5.69
2019-04-01T03:43:51.438Z,5.71
2019-04-01T03:44:55.148Z,5.69
2019-04-01T03:45:51.421Z,5.61
2019-04-01T03:46:51.577Z,5.67
2019-04-01T03:47:51.397Z,5.64
2019-04-01T03:48:51.376Z,5.61
2019-04-01T03:49:51.372Z,5.61
2019-04-01T03:50:51.381Z,5.58
2019-04-01T03:51:51.367Z,5.59
2019-04-01T03:52:51.331Z,5.59
2019-04-01T03:53:51.336Z,5.69
2019-04-01T03:54:51.313Z,5.72
2019-04-01T03:55:51.306Z,5.72
2019-04-01T03:56:51.320Z,5.83
2019-04-01T03:57:51.292Z,5.97
2019-04-01T03:58:51.269Z,6.10
2019-04-01T03:59:51.266Z,6.10
2019-04-01T04:00:51.262Z,6.15
2019-04-01T04:01:51.264Z,6.27
2019-04-01T04:02:51.227Z,6.27
2019-04-01T04:03:51.218Z,6.34
2019-04-01T04:04:51.199Z,6.49
2019-04-01T04:05:51.186Z,6.42
2019-04-01T04:06:51.225Z,6.55
2019-04-01T04:07:51.182Z,6.60
2019-04-01T04:08:51.165Z,6.48
2019-04-01T04:09:51.147Z,6.41
2019-04-01T04:10:51.141Z,6.38
2019-04-01T04:11:51.149Z,6.34
2019-04-01T04:12:51.161Z,6.29
2019-04-01T04:13:51.100Z,6.24
2019-04-01T04:14:51.751Z,6.26
2019-04-01T04:15:51.106Z,6.08
2019-04-01T04:16:51.123Z,6.03
2019-04-01T04:17:51.062Z,6.04
2019-04-01T04:18:51.050Z,5.97
2019-04-01T04:19:51.050Z,6.00
2019-04-01T04:20:51.033Z,5.95
2019-04-01T04:21:51.053Z,5.83
2019-04-01T04:22:51.009Z,5.82
2019-04-01T04:23:50.997Z,5.72
2019-04-01T04:24:50.980Z,5.72
2019-04-01T04:25:50.973Z,5.67
2019-04-01T04:26:50.974Z,5.79
2019-04-01T04:27:51.024Z,5.71
2019-04-01T04:28:50.942Z,5.71
2019-04-01T04:29:50.927Z,5.67
2019-04-01T04:30:50.917Z,5.72
2019-04-01T04:31:50.919Z,5.69
2019-04-01T04:32:50.940Z,5.67
2019-04-01T04:33:50.884Z,5.58
2019-04-01T04:34:50.863Z,5.53
2019-04-01T04:35:50.886Z,5.49
2019-04-01T04:36:50.848Z,5.51
2019-04-01T04:37:50.851Z,5.49
2019-04-01T04:38:50.824Z,5.44
2019-04-01T04:39:50.916Z,5.42
2019-04-01T04:40:50.804Z,5.40
2019-04-01T04:41:50.788Z,5.29
2019-04-01T04:42:50.803Z,5.28
2019-04-01T04:43:50.772Z,5.28
2019-04-01T04:44:50.752Z,5.31
2019-04-01T04:45:50.748Z,5.31
2019-04-01T04:46:50.743Z,5.25
2019-04-01T04:47:50.764Z,5.25
2019-04-01T04:48:50.718Z,5.21
2019-04-01T04:49:50.703Z,5.24
2019-04-01T04:50:50.689Z,5.28
2019-04-01T04:51:50.675Z,5.25
2019-04-01T04:52:50.714Z,5.17
2019-04-01T04:53:50.657Z,5.21
2019-04-01T04:54:50.645Z,5.17
2019-04-01T04:55:50.638Z,5.14
2019-04-01T04:56:50.639Z,5.14
2019-04-01T04:57:50.636Z,5.19
2019-04-01T04:58:50.595Z,5.13
2019-04-01T04:59:50.599Z,5.06
2019-04-01T05:00:50.571Z,5.11
2019-04-01T05:01:50.579Z,5.16
2019-04-01T05:02:50.578Z,5.13
2019-04-01T05:03:50.543Z,5.13
2019-04-01T05:04:50.531Z,5.14
2019-04-01T05:05:50.538Z,5.08
2019-04-01T05:06:50.508Z,5.11
2019-04-01T05:07:50.508Z,5.04
2019-04-01T05:08:50.483Z,5.06
2019-04-01T05:09:50.477Z,4.98
2019-04-01T05:10:50.493Z,4.99
2019-04-01T05:11:50.443Z,4.95
2019-04-01T05:12:50.461Z,4.92
2019-04-01T05:13:50.534Z,5.01
2019-04-01T05:14:50.422Z,4.98
2019-04-01T05:15:50.427Z,4.92
2019-04-01T05:16:50.396Z,4.99
2019-04-01T05:17:50.418Z,4.95
2019-04-01T05:18:50.375Z,4.99
2019-04-01T05:19:50.402Z,4.92
2019-04-01T05:20:50.360Z,4.95
2019-04-01T05:21:50.339Z,4.98
2019-04-01T05:22:50.356Z,5.06
2019-04-01T05:23:50.326Z,5.04
2019-04-01T05:24:50.886Z,5.03
2019-04-01T05:25:50.296Z,5.06
2019-04-01T05:26:50.294Z,5.06
2019-04-01T05:27:50.293Z,5.01
2019-04-01T05:28:50.272Z,4.99
2019-04-01T05:29:50.250Z,4.99
2019-04-01T05:30:50.236Z,5.06
2019-04-01T05:31:50.239Z,4.96
2019-04-01T05:32:50.265Z,5.03
2019-04-01T05:33:55.532Z,5.04
2019-04-01T05:34:51.192Z,5.01
2019-04-01T05:35:50.194Z,5.07
2019-04-01T05:36:50.175Z,4.99
2019-04-01T05:37:50.171Z,4.95
2019-04-01T05:38:50.228Z,5.01
2019-04-01T05:39:50.152Z,4.98
2019-04-01T05:40:50.255Z,4.96
2019-04-01T05:41:50.234Z,4.98
2019-04-01T05:42:50.102Z,4.93
2019-04-01T05:43:50.160Z,4.95
2019-04-01T05:44:50.128Z,4.96
2019-04-01T05:45:50.105Z,5.06
2019-04-01T05:46:50.124Z,5.04
2019-04-01T05:47:50.056Z,5.06
2019-04-01T05:48:50.068Z,5.11
2019-04-01T05:49:50.034Z,5.10
2019-04-01T05:50:50.020Z,5.16
2019-04-01T05:51:50.009Z,5.11
2019-04-01T05:52:50.008Z,5.10
2019-04-01T05:53:50.040Z,5.08
2019-04-01T05:54:49.968Z,5.24
2019-04-01T05:55:49.962Z,5.13
2019-04-01T05:56:49.984Z,5.13
2019-04-01T05:57:49.971Z,5.24
2019-04-01T05:58:50.017Z,5.13
2019-04-01T05:59:49.934Z,5.16
2019-04-01T06:00:49.902Z,5.21
2019-04-01T06:01:49.903Z,5.17
2019-04-01T06:02:49.925Z,5.13
2019-04-01T06:03:49.891Z,5.22
2019-04-01T06:04:49.866Z,5.17
2019-04-01T06:05:49.848Z,5.21
2019-04-01T06:06:49.852Z,5.24
2019-04-01T06:07:49.847Z,5.16
2019-04-01T06:08:49.849Z,5.22
2019-04-01T06:09:49.803Z,5.26
2019-04-01T06:10:49.793Z,5.32
2019-04-01T06:11:49.781Z,5.32
2019-04-01T06:12:49.782Z,5.40
2019-04-01T06:13:49.788Z,5.42
2019-04-01T06:14:49.796Z,5.58
2019-04-01T06:15:49.748Z,5.69
2019-04-01T06:16:49.726Z,5.76
2019-04-01T06:17:49.725Z,5.83
2019-04-01T06:18:49.722Z,6.04
2019-04-01T06:19:49.691Z,6.08
2019-04-01T06:20:49.696Z,6.11
2019-04-01T06:21:49.670Z,6.21
2019-04-01T06:22:49.761Z,6.24
2019-04-01T06:23:49.699Z,6.32
2019-04-01T06:24:49.640Z,6.37
2019-04-01T06:25:49.632Z,6.38
2019-04-01T06:26:49.621Z,6.53
2019-04-01T06:27:49.602Z,6.52
2019-04-01T06:28:49.611Z,6.49
2019-04-01T06:29:49.607Z,6.60
2019-04-01T06:30:49.571Z,6.71
2019-04-01T06:31:49.555Z,6.78
2019-04-01T06:32:49.542Z,6.75
2019-04-01T06:33:49.542Z,6.85
2019-04-01T06:34:52.986Z,6.93
2019-04-01T06:35:49.524Z,6.91
2019-04-01T06:36:49.503Z,6.95
2019-04-01T06:37:49.486Z,6.99
2019-04-01T06:38:49.492Z,7.03
2019-04-01T06:39:49.493Z,7.02
2019-04-01T06:40:49.501Z,6.96
2019-04-01T06:41:49.466Z,7.02
2019-04-01T06:42:49.442Z,6.98
2019-04-01T06:43:49.434Z,6.84
2019-04-01T06:44:49.433Z,6.83
2019-04-01T06:45:49.415Z,6.81
2019-04-01T06:46:49.426Z,6.77
2019-04-01T06:47:49.385Z,6.78
2019-04-01T06:48:49.366Z,6.71
2019-04-01T06:49:49.377Z,6.71
2019-04-01T06:50:49.385Z,6.70
2019-04-01T06:51:49.352Z,6.74
2019-04-01T06:52:49.335Z,6.71
2019-04-01T06:53:49.342Z,6.77
2019-04-01T06:54:49.329Z,6.78
2019-04-01T06:55:49.294Z,6.83
2019-04-01T06:56:49.291Z,6.89
2019-04-01T06:57:49.279Z,6.88
2019-04-01T06:58:49.268Z,6.91
2019-04-01T06:59:49.285Z,6.89
2019-04-01T07:00:49.281Z,6.88
2019-04-01T07:01:49.225Z,6.92
2019-04-01T07:02:49.216Z,6.89
2019-04-01T07:03:49.212Z,6.85
2019-04-01T07:04:49.260Z,6.88
2019-04-01T07:05:49.196Z,6.85
2019-04-01T07:06:49.177Z,6.80
2019-04-01T07:07:49.170Z,6.89
2019-04-01T07:08:49.167Z,6.89
2019-04-01T07:09:50.845Z,6.91
2019-04-01T07:10:49.152Z,6.85
2019-04-01T07:11:49.126Z,6.83
2019-04-01T07:12:49.132Z,6.91
2019-04-01T07:13:49.097Z,6.95
2019-04-01T07:14:49.171Z,6.92
2019-04-01T07:15:49.097Z,6.93
2019-04-01T07:16:49.105Z,7.02
2019-04-01T07:17:49.054Z,7.07
2019-04-01T07:18:49.063Z,7.03
2019-04-01T07:19:49.030Z,7.14
2019-04-01T07:20:49.075Z,7.18
2019-04-01T07:21:49.047Z,7.21
2019-04-01T07:22:49.001Z,7.32
2019-04-01T07:23:48.994Z,7.35
2019-04-01T07:24:49.008Z,7.35
2019-04-01T07:25:48.988Z,7.31
2019-04-01T07:26:48.970Z,7.36
2019-04-01T07:27:48.948Z,7.47
2019-04-01T07:28:48.933Z,7.49
2019-04-01T07:29:48.923Z,7.52
2019-04-01T07:30:48.934Z,7.52
2019-04-01T07:31:48.900Z,7.60
2019-04-01T07:32:48.909Z,7.57
2019-04-01T07:33:48.882Z,7.68
2019-04-01T07:34:48.870Z,7.64
2019-04-01T07:35:48.879Z,7.78
2019-04-01T07:36:48.844Z,7.78
2019-04-01T07:37:48.841Z,7.79
2019-04-01T07:38:48.841Z,7.84
2019-04-01T07:39:48.819Z,7.76
2019-04-01T07:40:48.870Z,7.86
2019-04-01T07:41:48.798Z,7.83
2019-04-01T07:42:48.779Z,7.86
2019-04-01T07:43:48.778Z,7.84
2019-04-01T07:44:48.784Z,7.97
2019-04-01T07:45:48.784Z,7.98
2019-04-01T07:46:48.737Z,8.06
2019-04-01T07:47:51.521Z,8.13
2019-04-01T07:48:48.717Z,8.24
2019-04-01T07:49:48.799Z,8.30
2019-04-01T07:50:48.732Z,8.34
2019-04-01T07:51:48.686Z,8.45
2019-04-01T07:52:48.672Z,8.48
2019-04-01T07:53:48.661Z,8.48
2019-04-01T07:54:48.651Z,8.49
2019-04-01T07:55:48.650Z,8.51
2019-04-01T07:56:48.641Z,8.49
2019-04-01T07:57:48.617Z,8.54
2019-04-01T07:58:48.600Z,8.60
2019-04-01T07:59:48.585Z,8.59
2019-04-01T08:00:48.600Z,8.62
2019-04-01T08:01:48.600Z,8.69
2019-04-01T08:02:49.115Z,8.72
2019-04-01T08:03:48.544Z,8.77
2019-04-01T08:04:48.534Z,8.93
2019-04-01T08:05:48.536Z,8.98
2019-04-01T08:06:48.537Z,8.84
2019-04-01T08:07:48.496Z,8.93
2019-04-01T08:08:48.493Z,8.95
2019-04-01T08:09:48.475Z,9.02
2019-04-01T08:10:48.469Z,9.11
2019-04-01T08:11:50.244Z,9.14
2019-04-01T08:12:48.464Z,9.08
2019-04-01T08:13:48.431Z,9.18
2019-04-01T08:14:48.438Z,9.21
2019-04-01T08:15:48.418Z,9.18
2019-04-01T08:16:48.421Z,9.10
2019-04-01T08:17:48.396Z,9.19
2019-04-01T08:18:48.376Z,9.18
2019-04-01T08:19:48.619Z,9.15
2019-04-01T08:20:48.350Z,9.18
2019-04-01T08:21:48.358Z,9.24
2019-04-01T08:22:48.333Z,9.25
2019-04-01T08:23:48.336Z,9.34
2019-04-01T08:24:48.313Z,9.34
2019-04-01T08:25:48.296Z,9.37
2019-04-01T08:26:48.309Z,9.37
2019-04-01T08:27:48.272Z,9.49
2019-04-01T08:28:48.273Z,9.47
2019-04-01T08:29:48.247Z,9.43
2019-04-01T08:30:48.349Z,9.44
2019-04-01T08:31:48.440Z,9.44
2019-04-01T08:32:48.354Z,9.44
2019-04-01T08:33:50.227Z,9.47
2019-04-01T08:34:48.244Z,9.46
2019-04-01T08:35:48.186Z,9.47
2019-04-01T08:36:48.257Z,9.51
2019-04-01T08:37:55.328Z,9.46
2019-04-01T08:38:48.203Z,9.52
2019-04-01T08:39:48.261Z,9.46
2019-04-01T08:40:48.189Z,9.47
2019-04-01T08:41:48.166Z,9.49
2019-04-01T08:42:49.129Z,9.51
2019-04-01T08:43:48.106Z,9.58
2019-04-01T08:44:48.665Z,9.73
2019-04-01T08:45:48.090Z,9.70
2019-04-01T08:46:48.092Z,9.85
2019-04-01T08:47:48.058Z,9.85
2019-04-01T08:48:48.053Z,9.93
2019-04-01T08:49:48.040Z,9.93
2019-04-01T08:50:48.022Z,9.86
2019-04-01T08:51:48.044Z,9.90
2019-04-01T08:52:47.990Z,9.88
2019-04-01T08:53:47.979Z,9.97
2019-04-01T08:54:47.981Z,9.85
2019-04-01T08:55:48.672Z,9.90
2019-04-01T08:56:47.979Z,9.94
2019-04-01T08:57:47.934Z,10.00
2019-04-01T08:58:47.927Z,10.08
2019-04-01T08:59:47.913Z,10.22
2019-04-01T09:00:47.918Z,10.31
2019-04-01T09:01:47.933Z,10.37
2019-04-01T09:02:47.910Z,10.56
2019-04-01T09:03:47.875Z,10.65
2019-04-01T09:04:47.862Z,10.71
2019-04-01T09:05:47.885Z,10.75
2019-04-01T09:06:47.874Z,10.79
2019-04-01T09:07:47.846Z,10.86
2019-04-01T09:08:47.822Z,10.82
2019-04-01T09:09:47.809Z,10.93
2019-04-01T09:10:47.803Z,10.87
2019-04-01T09:11:47.797Z,10.95
2019-04-01T09:12:47.807Z,11.11
2019-04-01T09:13:47.789Z,11.12
2019-04-01T09:14:47.747Z,11.20
2019-04-01T09:15:47.737Z,11.25
2019-04-01T09:16:47.755Z,11.30
2019-04-01T09:17:47.737Z,11.32
2019-04-01T09:18:47.713Z,11.41
2019-04-01T09:19:47.779Z,11.62
2019-04-01T09:20:47.686Z,11.61
2019-04-01T09:21:47.675Z,11.69
2019-04-01T09:22:47.675Z,11.77
2019-04-01T09:23:47.649Z,11.80
2019-04-01T09:24:47.653Z,11.80
2019-04-01T09:25:47.619Z,11.77
2019-04-01T09:26:47.619Z,11.76
2019-04-01T09:27:47.620Z,11.80
2019-04-01T09:28:47.589Z,11.79
2019-04-01T09:29:47.581Z,11.90
2019-04-01T09:30:47.576Z,12.09
2019-04-01T09:31:47.576Z,12.21
2019-04-01T09:32:47.577Z,12.25
2019-04-01T09:33:47.533Z,12.24
2019-04-01T09:34:47.529Z,12.35
2019-04-01T09:35:47.528Z,12.38
2019-04-01T09:36:47.508Z,12.50
2019-04-01T09:37:47.515Z,12.53
2019-04-01T09:38:47.482Z,12.54
2019-04-01T09:39:47.480Z,12.61
2019-04-01T09:40:47.469Z,12.61
2019-04-01T09:41:47.453Z,12.72
2019-04-01T09:42:47.454Z,12.61
2019-04-01T09:43:47.498Z,12.73
2019-04-01T09:44:47.412Z,12.68
2019-04-01T09:45:47.406Z,12.72
2019-04-01T09:46:49.080Z,12.90
2019-04-01T09:47:47.396Z,13.09
2019-04-01T09:48:47.373Z,13.12
2019-04-01T09:49:47.401Z,13.26
2019-04-01T09:50:47.353Z,13.43
2019-04-01T09:51:48.928Z,13.53
2019-04-01T09:52:47.356Z,13.82
2019-04-01T09:53:47.325Z,13.78
2019-04-01T09:54:47.304Z,13.83
2019-04-01T09:55:47.312Z,13.92
2019-04-01T09:56:47.283Z,13.92
2019-04-01T09:57:47.345Z,13.90
2019-04-01T09:58:47.268Z,13.89
2019-04-01T09:59:47.269Z,13.85
2019-04-01T10:00:47.233Z,13.82
2019-04-01T10:01:47.227Z,13.90
2019-04-01T10:02:47.227Z,13.90
2019-04-01T10:03:47.198Z,14.10
2019-04-01T10:04:47.202Z,14.30
2019-04-01T10:05:47.186Z,14.53
2019-04-01T10:06:47.172Z,14.55
2019-04-01T10:07:47.391Z,14.88
2019-04-01T10:08:47.146Z,15.12
2019-04-01T10:09:47.154Z,15.24
2019-04-01T10:10:47.129Z,15.42
2019-04-01T10:11:47.125Z,15.75
2019-04-01T10:12:47.130Z,16.43
2019-04-01T10:13:47.101Z,17.33
2019-04-01T10:14:47.076Z,18.13
2019-04-01T10:15:47.076Z,19.04
2019-04-01T10:16:47.071Z,20.19
2019-04-01T10:17:47.058Z,21.21
2019-04-01T10:18:47.048Z,22.01
2019-04-01T10:19:47.260Z,22.73
2019-04-01T10:20:47.021Z,23.40
2019-04-01T10:21:47.031Z,24.05
2019-04-01T10:22:47.024Z,24.69
2019-04-01T10:23:46.988Z,25.29
2019-04-01T10:24:47.003Z,25.73
2019-04-01T10:25:47.032Z,26.23
2019-04-01T10:26:46.957Z,26.75
2019-04-01T10:27:46.994Z,27.39
2019-04-01T10:28:46.924Z,27.86
2019-04-01T10:29:46.912Z,28.17
2019-04-01T10:30:46.916Z,28.54
2019-04-01T10:31:46.910Z,28.93
2019-04-01T10:32:46.921Z,29.25
2019-04-01T10:33:46.866Z,29.47
2019-04-01T10:34:46.863Z,29.33
2019-04-01T10:35:46.850Z,29.11
2019-04-01T10:36:46.854Z,29.13
2019-04-01T10:37:46.851Z,29.48
2019-04-01T10:38:47.152Z,29.97
2019-04-01T10:39:46.807Z,30.24
2019-04-01T10:40:46.797Z,30.69
2019-04-01T10:41:46.788Z,31.07
2019-04-01T10:42:46.786Z,31.44
2019-04-01T10:43:46.806Z,31.22
2019-04-01T10:44:46.781Z,31.25
2019-04-01T10:45:46.751Z,31.21
2019-04-01T10:46:46.746Z,31.16
2019-04-01T10:47:46.794Z,31.21
2019-04-01T10:48:46.773Z,31.19
2019-04-01T10:49:46.783Z,31.41
2019-04-01T10:50:46.756Z,31.41
2019-04-01T10:51:46.689Z,31.52
2019-04-01T10:52:46.701Z,31.86
2019-04-01T10:53:46.702Z,32.03
2019-04-01T10:54:46.672Z,32.08
2019-04-01T10:55:46.777Z,31.98
2019-04-01T10:56:46.676Z,31.81
2019-04-01T10:57:46.652Z,31.63
2019-04-01T10:58:46.699Z,31.53
2019-04-01T10:59:46.626Z,31.38
2019-04-01T11:00:46.640Z,31.29
2019-04-01T11:01:46.588Z,31.19
2019-04-01T11:02:49.822Z,31.00
2019-04-01T11:03:46.602Z,30.77
2019-04-01T11:04:46.600Z,30.62
2019-04-01T11:05:46.552Z,30.51
2019-04-01T11:06:46.607Z,30.47
2019-04-01T11:07:46.602Z,30.31
2019-04-01T11:08:46.550Z,30.05
2019-04-01T11:09:46.537Z,30.02
2019-04-01T11:10:46.506Z,30.03
2019-04-01T11:11:46.508Z,30.03
2019-04-01T11:12:46.496Z,30.07
2019-04-01T11:13:46.530Z,29.95
2019-04-01T11:14:46.470Z,29.92
2019-04-01T11:15:46.472Z,29.88
2019-04-01T11:16:46.591Z,29.92
2019-04-01T11:17:46.431Z,29.95
2019-04-01T11:18:46.445Z,30.05
2019-04-01T11:19:46.423Z,30.20
2019-04-01T11:20:46.405Z,30.31
2019-04-01T11:21:46.415Z,30.39
2019-04-01T11:22:46.388Z,30.43
2019-04-01T11:23:46.455Z,30.57
2019-04-01T11:24:46.370Z,30.48
2019-04-01T11:25:46.359Z,30.56
2019-04-01T11:26:46.348Z,30.56
2019-04-01T11:27:46.342Z,30.50
2019-04-01T11:28:46.367Z,30.45
2019-04-01T11:29:46.325Z,30.45
2019-04-01T11:30:46.385Z,30.62
2019-04-01T11:31:46.344Z,30.59
2019-04-01T11:32:46.364Z,30.57
2019-04-01T11:33:46.315Z,30.51
2019-04-01T11:34:46.308Z,30.43
2019-04-01T11:35:46.280Z,30.52
2019-04-01T11:36:46.286Z,30.96
2019-04-01T11:37:46.321Z,31.49
2019-04-01T11:38:46.292Z,31.94
2019-04-01T11:39:46.258Z,32.11
2019-04-01T11:40:46.260Z,32.23
2019-04-01T11:41:46.255Z,32.33
2019-04-01T11:42:46.264Z,32.62
2019-04-01T11:43:46.215Z,32.64
2019-04-01T11:44:46.238Z,32.74
2019-04-01T11:45:46.202Z,32.75
2019-04-01T11:46:46.187Z,32.83
2019-04-01T11:47:46.144Z,32.93
2019-04-01T11:48:46.153Z,33.02
2019-04-01T11:49:46.125Z,33.16
2019-04-01T11:50:47.927Z,33.01
2019-04-01T11:51:46.147Z,33.04
2019-04-01T11:52:46.109Z,32.77
2019-04-01T11:53:46.146Z,32.40
2019-04-01T11:54:46.074Z,32.13
2019-04-01T11:55:46.061Z,31.80
2019-04-01T11:56:46.049Z,31.41
2019-04-01T11:57:46.073Z,31.03
2019-04-01T11:58:46.055Z,30.67
2019-04-01T11:59:46.015Z,30.65
2019-04-01T12:00:46.004Z,30.74
2019-04-01T12:01:47.392Z,30.65
2019-04-01T12:02:46.690Z,30.66
2019-04-01T12:03:45.996Z,30.54
2019-04-01T12:04:45.961Z,30.45
2019-04-01T12:05:45.965Z,30.51
2019-04-01T12:06:45.945Z,30.54
2019-04-01T12:07:45.940Z,30.47
2019-04-01T12:08:46.188Z,30.60
2019-04-01T12:09:45.928Z,30.44
2019-04-01T12:10:45.901Z,30.07
2019-04-01T12:11:45.897Z,29.76
2019-04-01T12:12:45.875Z,29.70
2019-04-01T12:13:45.885Z,29.53
2019-04-01T12:14:45.868Z,29.28
2019-04-01T12:15:45.846Z,28.76
2019-04-01T12:16:45.870Z,28.58
2019-04-01T12:17:45.825Z,27.93
2019-04-01T12:18:45.845Z,27.48
2019-04-01T12:19:45.921Z,27.18
2019-04-01T12:20:45.814Z,26.92
2019-04-01T12:21:45.784Z,26.89
2019-04-01T12:22:46.273Z,26.49
2019-04-01T12:23:45.774Z,26.04
2019-04-01T12:24:45.755Z,25.45
2019-04-01T12:25:45.749Z,25.03
2019-04-01T12:26:46.373Z,24.35
2019-04-01T12:27:45.726Z,23.66
2019-04-01T12:28:45.749Z,23.27
2019-04-01T12:29:48.211Z,22.81
2019-04-01T12:30:45.715Z,22.26
2019-04-01T12:31:45.694Z,22.19
2019-04-01T12:32:45.677Z,21.95
2019-04-01T12:33:45.672Z,21.47
2019-04-01T12:34:46.675Z,21.06
2019-04-01T12:35:45.625Z,21.08
2019-04-01T12:36:45.629Z,20.93
2019-04-01T12:37:46.022Z,20.95
2019-04-01T12:38:45.619Z,20.78
2019-04-01T12:39:45.597Z,20.59
2019-04-01T12:40:45.576Z,20.24
2019-04-01T12:41:45.573Z,20.09
2019-04-01T12:42:46.365Z,19.88
2019-04-01T12:43:45.572Z,19.69
2019-04-01T12:44:45.531Z,19.39
2019-04-01T12:45:45.539Z,19.18
2019-04-01T12:46:45.529Z,18.95
2019-04-01T12:47:45.505Z,18.93
2019-04-01T12:48:45.509Z,18.74
2019-04-01T12:49:45.481Z,18.43
2019-04-01T12:50:45.466Z,18.40
2019-04-01T12:51:45.460Z,18.19
2019-04-01T12:52:46.284Z,18.16
2019-04-01T12:53:45.974Z,18.15
2019-04-01T12:54:45.427Z,18.05
2019-04-01T12:55:45.420Z,17.98
2019-04-01T12:56:45.397Z,17.78
2019-04-01T12:57:48.297Z,17.53
2019-04-01T12:58:45.403Z,17.37
2019-04-01T12:59:46.004Z,17.33
2019-04-01T13:00:45.374Z,17.24
2019-04-01T13:01:45.360Z,17.19
2019-04-01T13:02:45.327Z,17.14
2019-04-01T13:03:45.356Z,17.14
2019-04-01T13:04:45.323Z,17.12
2019-04-01T13:05:45.299Z,16.99
2019-04-01T13:06:45.303Z,16.91
2019-04-01T13:07:45.280Z,16.72
2019-04-01T13:08:45.275Z,16.72
2019-04-01T13:09:45.249Z,16.66
2019-04-01T13:10:45.258Z,16.68